createdAt,value
2022-11-16T00:01:18.540Z,10.50
2022-11-16T00:03:45.609Z,10.50
2022-11-16T00:06:14.012Z,10.50
2022-11-16T00:09:06.456Z,10.50
2022-11-16T00:11:33.358Z,10.50
2022-11-16T00:14:00.115Z,10.50
2022-11-16T00:16:27.931Z,10.50
2022-11-16T00:18:59.498Z,10.50
2022-11-16T00:21:27.417Z,10.50
2022-11-16T00:23:54.698Z,10.50
2022-11-16T00:26:21.774Z,10.50
2022-11-16T00:28:48.769Z,10.50
2022-11-16T00:31:15.689Z,10.50
2022-11-16T00:33:42.270Z,10.40
2022-11-16T00:36:12.054Z,10.50
2022-11-16T00:38:38.901Z,10.50
2022-11-16T00:41:06.293Z,10.50
2022-11-16T00:43:34.147Z,10.50
2022-11-16T00:46:00.933Z,10.50
2022-11-16T00:48:27.785Z,10.50
2022-11-16T00:50:54.752Z,10.40
2022-11-16T00:53:21.906Z,10.50
2022-11-16T00:55:48.827Z,10.50
2022-11-16T00:58:15.973Z,10.50
2022-11-16T01:00:43.806Z,10.40
2022-11-16T01:03:10.861Z,10.40
2022-11-16T01:05:38.124Z,10.50
2022-11-16T01:08:05.437Z,10.50
2022-11-16T01:10:32.071Z,10.50
2022-11-16T01:12:58.748Z,10.50
2022-11-16T01:15:27.350Z,10.50
2022-11-16T01:17:55.943Z,10.50
2022-11-16T01:20:25.841Z,10.50
2022-11-16T01:22:53.233Z,10.50
2022-11-16T01:25:20.689Z,10.50
2022-11-16T01:27:47.424Z,10.50
2022-11-16T01:30:16.325Z,10.50
2022-11-16T01:32:42.996Z,10.50
2022-11-16T01:35:14.262Z,10.50
2022-11-16T01:37:40.859Z,10.50
2022-11-16T01:40:08.012Z,10.50
2022-11-16T01:42:34.646Z,10.50
2022-11-16T01:45:09.976Z,10.50
2022-11-16T01:47:36.640Z,10.50
2022-11-16T01:50:12.091Z,10.60
2022-11-16T01:52:47.536Z,10.60
2022-11-16T01:55:14.472Z,10.60
2022-11-16T01:58:02.663Z,10.60
2022-11-16T02:00:30.432Z,10.60
2022-11-16T02:02:57.183Z,10.60
2022-11-16T02:06:01.026Z,10.50
2022-11-16T02:09:09.000Z,10.50
2022-11-16T02:12:14.482Z,10.50
2022-11-16T02:15:03.301Z,10.60
2022-11-16T02:17:35.918Z,10.60
2022-11-16T02:20:21.354Z,10.60
2022-11-16T02:23:06.678Z,10.60
2022-11-16T02:25:49.959Z,10.60
2022-11-16T02:28:48.607Z,10.50
2022-11-16T02:31:24.741Z,10.50
2022-11-16T02:33:54.544Z,10.60
2022-11-16T02:36:23.968Z,10.60
2022-11-16T02:39:00.877Z,10.60
2022-11-16T02:41:32.133Z,10.50
2022-11-16T02:44:09.315Z,10.50
2022-11-16T02:46:43.796Z,10.50
2022-11-16T02:49:21.508Z,10.50
2022-11-16T02:51:48.940Z,10.50
2022-11-16T02:54:18.149Z,10.40
2022-11-16T02:57:02.982Z,10.50
2022-11-16T02:59:38.130Z,10.40
2022-11-16T03:02:31.252Z,10.40
2022-11-16T03:05:05.114Z,10.40
2022-11-16T03:07:37.277Z,10.40
2022-11-16T03:10:04.440Z,10.40
2022-11-16T03:12:35.408Z,10.40
2022-11-16T03:15:06.059Z,10.40
2022-11-16T03:17:40.405Z,10.40
2022-11-16T03:20:14.224Z,10.40
2022-11-16T03:22:47.075Z,10.40
2022-11-16T03:25:17.436Z,10.40
2022-11-16T03:28:04.309Z,10.40
2022-11-16T03:30:37.389Z,10.40
2022-11-16T03:33:19.307Z,10.40
2022-11-16T03:36:05.202Z,10.40
2022-11-16T03:38:34.836Z,10.40
2022-11-16T03:41:06.088Z,10.40
2022-11-16T03:43:34.166Z,10.40
2022-11-16T03:46:01.077Z,10.40
2022-11-16T03:48:39.041Z,10.40
2022-11-16T03:51:07.544Z,10.40
2022-11-16T03:53:34.211Z,10.40
2022-11-16T03:56:00.820Z,10.40
2022-11-16T03:58:27.449Z,10.40
2022-11-16T04:00:54.267Z,10.40
2022-11-16T04:03:21.593Z,10.40
2022-11-16T04:06:07.230Z,10.40
2022-11-16T04:08:52.725Z,10.40
2022-11-16T04:11:40.204Z,10.40
2022-11-16T04:14:33.108Z,10.40
2022-11-16T04:17:18.415Z,10.40
2022-11-16T04:20:03.860Z,10.40
2022-11-16T04:22:58.875Z,10.40
2022-11-16T04:25:30.566Z,10.30
2022-11-16T04:28:16.436Z,10.30
2022-11-16T04:31:04.630Z,10.30
2022-11-16T04:33:50.108Z,10.30
2022-11-16T04:36:35.961Z,10.40
2022-11-16T04:39:02.955Z,10.40
2022-11-16T04:41:51.721Z,10.30
2022-11-16T04:44:19.105Z,10.40
2022-11-16T04:47:04.954Z,10.40
2022-11-16T04:49:31.746Z,10.40
2022-11-16T04:51:58.570Z,10.40
2022-11-16T04:54:25.216Z,10.30
2022-11-16T04:56:51.816Z,10.40
2022-11-16T04:59:18.435Z,10.40
2022-11-16T05:02:03.803Z,10.40
2022-11-16T05:04:30.401Z,10.40
2022-11-16T05:06:57.047Z,10.40
2022-11-16T05:09:23.688Z,10.40
2022-11-16T05:11:50.353Z,10.40
2022-11-16T05:14:16.965Z,10.40
2022-11-16T05:16:43.649Z,10.40
2022-11-16T05:19:29.042Z,10.40
2022-11-16T05:21:55.641Z,10.30
2022-11-16T05:24:34.029Z,10.30
2022-11-16T05:27:09.314Z,10.30
2022-11-16T05:29:36.381Z,10.30
2022-11-16T05:32:04.093Z,10.30
2022-11-16T05:34:30.953Z,10.20
2022-11-16T05:36:58.375Z,10.20
2022-11-16T05:39:25.365Z,10.20
2022-11-16T05:41:52.553Z,10.20
2022-11-16T05:44:19.455Z,10.20
2022-11-16T05:46:46.503Z,10.10
2022-11-16T05:49:14.390Z,10.10
2022-11-16T05:51:43.128Z,10.10
2022-11-16T05:54:12.818Z,10.10
2022-11-16T05:56:39.775Z,10.10
2022-11-16T05:59:06.596Z,10.10
2022-11-16T06:01:33.249Z,10.00
2022-11-16T06:04:01.448Z,10.00
2022-11-16T06:06:28.678Z,9.90
2022-11-16T06:08:55.674Z,9.80
2022-11-16T06:11:22.600Z,9.70
2022-11-16T06:13:49.229Z,9.70
2022-11-16T06:16:16.133Z,9.70
2022-11-16T06:18:45.722Z,9.60
2022-11-16T06:21:14.184Z,9.60
2022-11-16T06:23:40.872Z,9.60
2022-11-16T06:26:08.135Z,9.50
2022-11-16T06:28:35.070Z,9.40
2022-11-16T06:31:02.597Z,9.40
2022-11-16T06:33:33.402Z,9.30
2022-11-16T06:36:00.624Z,9.20
2022-11-16T06:38:27.806Z,9.20
2022-11-16T06:40:56.697Z,9.20
2022-11-16T06:43:24.485Z,9.20
2022-11-16T06:45:53.087Z,9.20
2022-11-16T06:48:20.527Z,9.10
2022-11-16T06:50:51.948Z,9.20
2022-11-16T06:53:22.456Z,9.10
2022-11-16T06:55:51.374Z,9.00
2022-11-16T06:58:17.995Z,9.00
2022-11-16T07:00:44.669Z,8.90
2022-11-16T07:03:11.484Z,8.80
2022-11-16T07:05:42.043Z,8.80
2022-11-16T07:08:09.281Z,8.80
2022-11-16T07:10:36.802Z,8.90
2022-11-16T07:13:04.330Z,8.90
2022-11-16T07:15:31.960Z,8.90
2022-11-16T07:18:06.929Z,8.90
2022-11-16T07:20:34.170Z,8.90
2022-11-16T07:23:02.345Z,8.80
2022-11-16T07:25:29.472Z,8.80
2022-11-16T07:27:57.655Z,8.80
2022-11-16T07:30:24.512Z,8.80
2022-11-16T07:32:56.428Z,8.70
2022-11-16T07:35:23.132Z,8.60
2022-11-16T07:37:49.724Z,8.60
2022-11-16T07:40:16.441Z,8.60
2022-11-16T07:42:44.390Z,8.60
2022-11-16T07:45:12.247Z,8.60
2022-11-16T07:47:38.992Z,8.50
2022-11-16T07:50:06.314Z,8.50
2022-11-16T07:52:32.966Z,8.40
2022-11-16T07:54:59.712Z,8.40
2022-11-16T07:57:26.771Z,8.50
2022-11-16T07:59:53.544Z,8.60
2022-11-16T08:02:31.891Z,8.70
2022-11-16T08:04:58.740Z,8.60
2022-11-16T08:07:25.815Z,8.60
2022-11-16T08:09:52.837Z,8.70
2022-11-16T08:12:19.821Z,8.70
2022-11-16T08:14:46.676Z,8.80
2022-11-16T08:17:14.976Z,8.80
2022-11-16T08:19:42.395Z,8.90
2022-11-16T08:22:09.466Z,9.00
2022-11-16T08:24:36.157Z,9.20
2022-11-16T08:27:03.017Z,9.40
2022-11-16T08:29:30.092Z,9.50
2022-11-16T08:31:56.775Z,9.60
2022-11-16T08:34:23.526Z,10.00
2022-11-16T08:36:50.215Z,10.80
2022-11-16T08:39:18.753Z,11.40
2022-11-16T08:41:45.717Z,11.70
2022-11-16T08:44:22.222Z,12.00
2022-11-16T08:46:49.006Z,12.30
2022-11-16T08:49:15.652Z,13.10
2022-11-16T08:51:42.335Z,13.50
2022-11-16T08:54:09.462Z,13.40
2022-11-16T08:56:36.152Z,13.00
2022-11-16T08:59:03.249Z,12.70
2022-11-16T09:01:32.528Z,12.40
2022-11-16T09:03:59.931Z,12.60
2022-11-16T09:06:28.206Z,12.70
2022-11-16T09:08:56.035Z,12.70
2022-11-16T09:11:24.661Z,13.10
2022-11-16T09:13:52.857Z,13.00
2022-11-16T09:16:20.978Z,12.70
2022-11-16T09:18:50.562Z,12.50
2022-11-16T09:21:25.785Z,12.20
2022-11-16T09:23:54.064Z,12.20
2022-11-16T09:26:22.924Z,12.10
2022-11-16T09:28:58.801Z,11.70
2022-11-16T09:31:31.260Z,11.50
2022-11-16T09:33:58.816Z,11.60
2022-11-16T09:36:27.555Z,12.10
2022-11-16T09:39:25.841Z,12.20
2022-11-16T09:41:54.666Z,12.10
2022-11-16T09:45:06.295Z,11.70
2022-11-16T09:47:52.289Z,11.70
2022-11-16T09:50:29.869Z,12.00
2022-11-16T09:53:01.524Z,12.60
2022-11-16T09:55:41.618Z,13.10
2022-11-16T09:58:15.068Z,13.20
2022-11-16T10:00:47.313Z,13.50
2022-11-16T10:03:15.217Z,13.80
2022-11-16T10:06:03.873Z,14.40
2022-11-16T10:08:51.436Z,15.10
2022-11-16T10:11:53.425Z,16.30
2022-11-16T10:14:53.686Z,17.10
2022-11-16T10:17:54.700Z,17.50
2022-11-16T10:20:46.571Z,17.80
2022-11-16T10:24:04.247Z,18.80
2022-11-16T10:27:03.780Z,18.60
2022-11-16T10:29:54.230Z,18.60
2022-11-16T10:32:28.821Z,19.00
2022-11-16T10:35:06.414Z,19.10
2022-11-16T10:37:37.311Z,19.50
2022-11-16T10:40:26.107Z,20.30
2022-11-16T10:43:00.916Z,21.40
2022-11-16T10:45:35.588Z,22.00
2022-11-16T10:48:17.515Z,21.70
2022-11-16T10:50:50.108Z,21.00
2022-11-16T10:53:29.207Z,21.20
2022-11-16T10:56:22.127Z,22.10
2022-11-16T10:58:53.213Z,22.30
2022-11-16T11:01:37.070Z,21.90
2022-11-16T11:04:24.843Z,21.80
2022-11-16T11:06:54.849Z,20.90
2022-11-16T11:09:35.829Z,21.00
2022-11-16T11:12:37.822Z,19.90
2022-11-16T11:15:25.873Z,18.40
2022-11-16T11:18:16.133Z,17.90
2022-11-16T11:20:46.893Z,17.40
2022-11-16T11:23:24.742Z,18.20
2022-11-16T11:25:59.895Z,18.70
2022-11-16T11:28:36.362Z,19.10
2022-11-16T11:31:03.064Z,19.20
2022-11-16T11:33:57.311Z,20.10
2022-11-16T11:36:33.318Z,18.90
2022-11-16T11:39:04.328Z,17.80
2022-11-16T11:41:36.751Z,16.70
2022-11-16T11:44:04.337Z,15.80
2022-11-16T11:47:18.193Z,15.30
2022-11-16T11:49:33.662Z,15.70
2022-11-16T11:52:10.475Z,17.80
2022-11-16T11:54:46.102Z,19.40
2022-11-16T11:57:15.632Z,19.50
2022-11-16T11:59:42.429Z,19.80
2022-11-16T12:02:40.309Z,20.10
2022-11-16T12:05:29.815Z,21.00
2022-11-16T12:08:05.321Z,21.70
2022-11-16T12:10:35.193Z,21.70
2022-11-16T12:13:14.056Z,21.40
2022-11-16T12:16:02.421Z,20.80
2022-11-16T12:18:50.877Z,20.60
2022-11-16T12:21:43.985Z,18.90
2022-11-16T12:24:22.543Z,17.40
2022-11-16T12:27:02.010Z,16.70
2022-11-16T12:29:49.016Z,17.70
2022-11-16T12:32:40.227Z,18.50
2022-11-16T12:35:21.885Z,17.80
2022-11-16T12:38:27.467Z,17.00
2022-11-16T12:41:03.023Z,16.20
2022-11-16T12:43:48.356Z,15.50
2022-11-16T12:46:37.260Z,15.10
2022-11-16T12:49:21.126Z,14.80
2022-11-16T12:52:26.275Z,14.80
2022-11-16T12:55:25.495Z,14.30
2022-11-16T12:58:15.103Z,14.20
2022-11-16T13:00:53.230Z,14.10
2022-11-16T13:03:35.288Z,14.00
2022-11-16T13:06:12.262Z,13.80
2022-11-16T13:08:59.777Z,13.80
2022-11-16T13:11:38.078Z,13.80
2022-11-16T13:14:10.983Z,13.80
2022-11-16T13:16:37.938Z,13.70
2022-11-16T13:19:09.974Z,13.40
2022-11-16T13:21:48.752Z,13.30
2022-11-16T13:24:35.107Z,13.20
2022-11-16T13:27:27.128Z,13.00
2022-11-16T13:30:08.840Z,13.10
2022-11-16T13:32:48.216Z,13.30
2022-11-16T13:35:17.496Z,13.40
2022-11-16T13:37:46.224Z,13.20
2022-11-16T13:40:33.041Z,13.20
2022-11-16T13:43:05.450Z,13.20
2022-11-16T13:45:58.892Z,13.30
2022-11-16T13:48:34.362Z,13.90
2022-11-16T13:51:05.335Z,14.30
2022-11-16T13:56:28.718Z,14.00
2022-11-16T13:58:57.464Z,13.60
2022-11-16T14:01:24.352Z,13.30
2022-11-16T14:04:11.998Z,13.10
2022-11-16T14:06:44.944Z,13.00
2022-11-16T14:09:43.575Z,12.90
2022-11-16T14:12:38.870Z,12.80
2022-11-16T14:15:23.259Z,12.80
2022-11-16T14:17:57.978Z,12.80
2022-11-16T14:20:33.225Z,12.70
2022-11-16T14:23:15.096Z,12.70
2022-11-16T14:25:54.051Z,12.70
2022-11-16T14:28:48.413Z,12.60
2022-11-16T14:31:45.265Z,12.60
2022-11-16T14:34:21.492Z,12.50
2022-11-16T14:36:49.715Z,12.50
2022-11-16T14:39:17.757Z,12.50
2022-11-16T14:41:46.253Z,12.50
2022-11-16T14:44:17.453Z,12.30
2022-11-16T14:46:44.535Z,12.30
2022-11-16T14:49:16.813Z,12.20
2022-11-16T14:51:51.269Z,12.10
2022-11-16T14:54:42.384Z,12.00
2022-11-16T14:57:23.061Z,12.00
2022-11-16T15:00:06.042Z,12.00
2022-11-16T15:02:32.965Z,11.90
2022-11-16T15:04:59.668Z,11.90
2022-11-16T15:07:27.190Z,11.90
2022-11-16T15:09:56.669Z,11.90
2022-11-16T15:12:41.731Z,11.90
2022-11-16T15:15:11.412Z,12.00
2022-11-16T15:17:44.188Z,12.00
2022-11-16T15:20:15.781Z,12.00
2022-11-16T15:22:45.284Z,12.00
2022-11-16T15:25:29.672Z,11.90
2022-11-16T15:27:58.104Z,11.90
2022-11-16T15:30:30.885Z,11.70
2022-11-16T15:32:57.732Z,11.70
2022-11-16T15:35:33.646Z,11.50
2022-11-16T15:38:19.966Z,11.50
2022-11-16T15:40:53.440Z,11.40
2022-11-16T15:44:01.340Z,11.40
2022-11-16T15:46:32.344Z,11.40
2022-11-16T15:49:00.143Z,11.30
2022-11-16T15:51:33.101Z,11.30
2022-11-16T15:54:22.757Z,11.20
2022-11-16T15:56:50.476Z,11.10
2022-11-16T15:59:27.430Z,11.10
2022-11-16T16:01:54.723Z,11.00
2022-11-16T16:04:22.236Z,11.00
2022-11-16T16:06:55.169Z,10.90
2022-11-16T16:09:37.551Z,10.90
2022-11-16T16:12:26.210Z,11.00
2022-11-16T16:15:13.148Z,11.00
2022-11-16T16:17:46.124Z,11.00
2022-11-16T16:20:19.356Z,11.10
2022-11-16T16:22:46.275Z,11.10
2022-11-16T16:25:29.756Z,11.00
2022-11-16T16:27:56.820Z,11.00
2022-11-16T16:30:24.634Z,11.00
2022-11-16T16:32:52.889Z,11.00
2022-11-16T16:35:24.972Z,11.00
2022-11-16T16:38:00.889Z,11.00
2022-11-16T16:40:28.489Z,11.00
2022-11-16T16:42:56.082Z,11.00
2022-11-16T16:45:41.736Z,11.00
2022-11-16T16:48:09.637Z,11.00
2022-11-16T16:50:36.680Z,10.90
2022-11-16T16:53:03.528Z,10.90
2022-11-16T16:55:35.699Z,10.90
2022-11-16T16:58:03.991Z,10.90
2022-11-16T17:00:30.628Z,10.90
2022-11-16T17:02:58.401Z,10.90
2022-11-16T17:05:26.260Z,10.80
2022-11-16T17:07:56.357Z,10.70
2022-11-16T17:10:23.488Z,10.70
2022-11-16T17:12:53.910Z,10.80
2022-11-16T17:15:20.768Z,10.70
2022-11-16T17:17:47.798Z,10.70
2022-11-16T17:20:14.902Z,10.70
2022-11-16T17:22:41.935Z,10.70
2022-11-16T17:25:09.764Z,10.60
2022-11-16T17:27:36.512Z,10.50
2022-11-16T17:30:03.714Z,10.30
2022-11-16T17:32:30.507Z,10.20
2022-11-16T17:34:57.089Z,10.00
2022-11-16T17:37:23.718Z,9.80
2022-11-16T17:39:50.455Z,9.70
2022-11-16T17:42:17.070Z,9.50
2022-11-16T17:44:43.682Z,9.30
2022-11-16T17:47:10.389Z,9.20
2022-11-16T17:49:36.978Z,9.20
2022-11-16T17:52:04.864Z,9.10
2022-11-16T17:54:31.713Z,9.10
2022-11-16T17:56:58.333Z,9.20
2022-11-16T17:59:29.144Z,9.10
2022-11-16T18:01:57.783Z,9.00
2022-11-16T18:04:24.525Z,8.80
2022-11-16T18:06:51.201Z,8.70
2022-11-16T18:09:18.736Z,8.50
2022-11-16T18:11:45.452Z,8.40
2022-11-16T18:14:12.300Z,8.40
2022-11-16T18:16:42.221Z,8.30
2022-11-16T18:19:09.983Z,8.10
2022-11-16T18:21:40.920Z,8.10
2022-11-16T18:24:08.422Z,8.00
2022-11-16T18:26:35.095Z,7.90
2022-11-16T18:29:01.828Z,7.90
2022-11-16T18:31:29.692Z,7.90
2022-11-16T18:33:56.622Z,8.00
2022-11-16T18:36:23.276Z,8.10
2022-11-16T18:38:50.428Z,8.20
2022-11-16T18:41:21.002Z,8.30
2022-11-16T18:43:53.918Z,8.40
2022-11-16T18:46:23.000Z,8.50
2022-11-16T18:48:49.820Z,8.60
2022-11-16T18:51:17.853Z,8.80
2022-11-16T18:53:45.106Z,8.90
2022-11-16T18:56:11.941Z,8.90
2022-11-16T18:58:54.646Z,9.00
2022-11-16T19:01:24.080Z,9.00
2022-11-16T19:03:55.735Z,9.10
2022-11-16T19:06:23.477Z,9.20
2022-11-16T19:08:56.441Z,9.20
2022-11-16T19:11:24.046Z,9.30
2022-11-16T19:14:00.605Z,9.30
2022-11-16T19:16:27.814Z,9.30
2022-11-16T19:18:54.429Z,9.20
2022-11-16T19:21:24.122Z,9.20
2022-11-16T19:23:52.693Z,9.30
2022-11-16T19:26:20.938Z,9.20
2022-11-16T19:28:49.294Z,9.30
2022-11-16T19:31:21.461Z,9.30
2022-11-16T19:33:48.492Z,9.30
2022-11-16T19:36:18.454Z,9.30
2022-11-16T19:38:46.597Z,9.30
2022-11-16T19:41:15.189Z,9.20
2022-11-16T19:43:42.421Z,9.30
2022-11-16T19:46:11.415Z,9.30
2022-11-16T19:48:38.805Z,9.40
2022-11-16T19:51:06.493Z,9.50
2022-11-16T19:53:33.563Z,9.50
2022-11-16T19:56:00.647Z,9.60
2022-11-16T19:58:27.406Z,9.60
2022-11-16T20:01:04.401Z,9.60
2022-11-16T20:03:31.567Z,9.70
2022-11-16T20:06:34.613Z,9.70
2022-11-16T20:09:08.450Z,9.70
2022-11-16T20:11:36.482Z,9.80
2022-11-16T20:14:05.254Z,9.80
2022-11-16T20:16:38.970Z,9.70
2022-11-16T20:19:07.425Z,9.70
2022-11-16T20:21:42.358Z,9.70
2022-11-16T20:24:17.623Z,9.70
2022-11-16T20:26:47.121Z,9.70
2022-11-16T20:29:15.981Z,9.70
2022-11-16T20:31:45.192Z,9.70
2022-11-16T20:34:14.229Z,9.60
2022-11-16T20:36:43.259Z,9.70
2022-11-16T20:39:13.992Z,9.70
2022-11-16T20:41:41.149Z,9.60
2022-11-16T20:44:16.704Z,9.70
2022-11-16T20:46:44.937Z,9.70
2022-11-16T20:49:11.676Z,9.70
2022-11-16T20:51:38.604Z,9.70
2022-11-16T20:54:05.553Z,9.70
2022-11-16T20:56:32.817Z,9.70
2022-11-16T20:58:59.543Z,9.70
2022-11-16T21:01:33.823Z,9.70
2022-11-16T21:04:06.537Z,9.70
2022-11-16T21:06:33.743Z,9.70
2022-11-16T21:09:00.832Z,9.70
2022-11-16T21:11:30.397Z,9.70
2022-11-16T21:14:15.835Z,9.70
2022-11-16T21:16:42.807Z,9.70
2022-11-16T21:19:10.305Z,9.80
2022-11-16T21:21:37.992Z,9.80
2022-11-16T21:24:04.774Z,9.90
2022-11-16T21:26:32.854Z,9.90
2022-11-16T21:29:00.777Z,9.90
2022-11-16T21:31:33.037Z,9.90
2022-11-16T21:34:02.986Z,9.90
2022-11-16T21:36:31.467Z,9.90
2022-11-16T21:38:58.324Z,10.00
2022-11-16T21:41:26.172Z,10.00
2022-11-16T21:43:52.910Z,10.00
2022-11-16T21:46:22.415Z,10.00
2022-11-16T21:48:50.927Z,10.00
2022-11-16T21:51:19.562Z,10.00
2022-11-16T21:53:46.807Z,10.00
2022-11-16T21:56:15.726Z,10.00
2022-11-16T21:58:42.624Z,10.00
2022-11-16T22:01:10.933Z,10.00
2022-11-16T22:03:38.508Z,10.00
2022-11-16T22:06:25.748Z,10.00
2022-11-16T22:08:52.885Z,10.00
2022-11-16T22:11:21.992Z,10.00
2022-11-16T22:13:49.825Z,10.00
2022-11-16T22:16:17.970Z,10.10
2022-11-16T22:18:44.693Z,10.10
2022-11-16T22:21:11.954Z,10.10
2022-11-16T22:23:38.938Z,10.10
2022-11-16T22:26:08.541Z,10.10
2022-11-16T22:28:36.010Z,10.10
2022-11-16T22:31:07.835Z,10.10
2022-11-16T22:33:35.312Z,10.10
2022-11-16T22:36:02.569Z,10.10
2022-11-16T22:38:29.370Z,10.00
2022-11-16T22:40:57.407Z,10.00
2022-11-16T22:43:26.392Z,10.00
2022-11-16T22:46:01.060Z,10.00
2022-11-16T22:48:39.412Z,9.90
2022-11-16T22:51:24.115Z,9.90
2022-11-16T22:53:54.413Z,9.90
2022-11-16T22:56:21.383Z,9.90
2022-11-16T22:58:48.082Z,9.80
2022-11-16T23:01:14.781Z,9.90
2022-11-16T23:03:41.692Z,9.80
2022-11-16T23:06:08.375Z,9.80
2022-11-16T23:08:36.001Z,9.80
2022-11-16T23:11:24.178Z,9.80
2022-11-16T23:14:10.717Z,9.80
2022-11-16T23:16:38.407Z,9.80
2022-11-16T23:19:24.419Z,9.80
2022-11-16T23:22:09.862Z,9.80
2022-11-16T23:24:55.133Z,9.80
2022-11-16T23:27:31.067Z,9.70
2022-11-16T23:30:07.819Z,9.70
2022-11-16T23:32:37.506Z,9.70
2022-11-16T23:35:04.511Z,9.70
2022-11-16T23:37:31.123Z,9.70
2022-11-16T23:39:57.766Z,9.70
2022-11-16T23:42:43.121Z,9.70
2022-11-16T23:45:09.990Z,9.60
2022-11-16T23:47:36.612Z,9.60
2022-11-16T23:50:03.639Z,9.60
2022-11-16T23:52:30.226Z,9.60
2022-11-16T23:54:56.835Z,9.60
2022-11-16T23:57:23.475Z,9.60
2022-11-16T23:59:50.096Z,9.60
